createdAt,value
2022-08-17T00:00:05.715Z,1009.16
2022-08-17T00:02:21.166Z,1009.16
2022-08-17T00:04:02.299Z,1009.16
2022-08-17T00:06:02.105Z,1009.26
2022-08-17T00:08:02.488Z,1009.26
2022-08-17T00:10:01.652Z,1009.23
2022-08-17T00:12:51.540Z,1009.23
2022-08-17T00:14:02.470Z,1009.1
2022-08-17T00:16:01.993Z,1009.1
2022-08-17T00:18:02.546Z,1009.14
2022-08-17T00:20:01.638Z,1009.14
2022-08-17T00:22:36.726Z,1009
2022-08-17T00:24:01.782Z,1009
2022-08-17T00:26:01.935Z,1008.92
2022-08-17T00:28:02.204Z,1008.92
2022-08-17T00:30:02.341Z,1008.93
2022-08-17T00:33:17.183Z,1008.93
2022-08-17T00:34:02.223Z,1008.87
2022-08-17T00:36:02.535Z,1008.87
2022-08-17T00:38:01.820Z,1008.85
2022-08-17T00:40:02.385Z,1008.85
2022-08-17T00:42:02.416Z,1008.88
2022-08-17T00:44:01.867Z,1008.88
2022-08-17T00:46:02.433Z,1008.84
2022-08-17T00:48:01.859Z,1008.84
2022-08-17T00:50:02.509Z,1008.62
2022-08-17T00:52:01.670Z,1008.62
2022-08-17T00:54:02.224Z,1008.76
2022-08-17T00:56:02.474Z,1008.76
2022-08-17T00:58:01.893Z,1008.66
2022-08-17T01:00:04.908Z,1008.66
2022-08-17T01:02:01.873Z,1008.57
2022-08-17T01:04:02.390Z,1008.57
2022-08-17T01:06:02.074Z,1008.54
2022-08-17T01:08:01.880Z,1008.54
2022-08-17T01:10:01.707Z,1008.56
2022-08-17T01:12:02.088Z,1008.56
2022-08-17T01:14:02.507Z,1008.49
2022-08-17T01:16:02.010Z,1008.49
2022-08-17T01:18:01.627Z,1008.69
2022-08-17T01:20:01.848Z,1008.69
2022-08-17T01:22:02.293Z,1008.75
2022-08-17T01:24:01.931Z,1008.75
2022-08-17T01:26:01.957Z,1008.64
2022-08-17T01:28:02.371Z,1008.64
2022-08-17T01:30:02.390Z,1008.89
2022-08-17T01:32:01.676Z,1008.89
2022-08-17T01:34:02.197Z,1008.96
2022-08-17T01:36:02.068Z,1008.96
2022-08-17T01:38:01.929Z,1008.99
2022-08-17T01:40:02.861Z,1008.99
2022-08-17T01:42:01.836Z,1009.24
2022-08-17T01:44:02.456Z,1009.24
2022-08-17T01:46:04.170Z,1009.5
2022-08-17T01:48:02.384Z,1009.5
2022-08-17T01:50:02.195Z,1009.96
2022-08-17T01:52:02.440Z,1009.96
2022-08-17T01:54:02.167Z,1009.94
2022-08-17T01:56:01.785Z,1009.94
2022-08-17T01:58:02.443Z,1009.92
2022-08-17T02:00:05.294Z,1009.92
2022-08-17T02:02:02.279Z,1010.06
2022-08-17T02:04:02.233Z,1010.06
2022-08-17T02:06:02.138Z,1010.09
2022-08-17T02:08:02.498Z,1010.09
2022-08-17T02:10:02.425Z,1010.02
2022-08-17T02:12:39.883Z,1010.02
2022-08-17T02:14:04.295Z,1010.03
2022-08-17T02:16:02.015Z,1010.03
2022-08-17T02:18:02.311Z,1010.07
2022-08-17T02:20:01.869Z,1010
2022-08-17T02:22:02.331Z,1010
2022-08-17T02:24:01.848Z,1009.98
2022-08-17T02:26:01.563Z,1009.98
2022-08-17T02:28:01.943Z,1009.91
2022-08-17T02:30:01.780Z,1009.91
2022-08-17T02:32:02.422Z,1009.91
2022-08-17T02:34:05.520Z,1009.91
2022-08-17T02:36:01.585Z,1009.94
2022-08-17T02:38:02.174Z,1009.94
2022-08-17T02:40:02.111Z,1010.14
2022-08-17T02:42:01.981Z,1010.14
2022-08-17T02:44:02.536Z,1009.99
2022-08-17T02:46:02.120Z,1009.99
2022-08-17T02:48:02.390Z,1009.07
2022-08-17T02:50:02.167Z,1009.07
2022-08-17T02:52:02.108Z,1009.34
2022-08-17T02:54:42.367Z,1009.34
2022-08-17T02:56:01.692Z,1009.6
2022-08-17T02:58:02.275Z,1009.6
2022-08-17T03:00:07.435Z,1009.61
2022-08-17T03:02:02.547Z,1009.61
2022-08-17T03:04:02.288Z,1009.63
2022-08-17T03:06:02.358Z,1009.63
2022-08-17T03:08:01.879Z,1009.53
2022-08-17T03:10:02.209Z,1009.53
2022-08-17T03:12:01.596Z,1009.46
2022-08-17T03:14:01.623Z,1009.46
2022-08-17T03:16:02.052Z,1009.49
2022-08-17T03:18:02.185Z,1009.49
2022-08-17T03:20:02.070Z,1009.37
2022-08-17T03:22:38.521Z,1009.37
2022-08-17T03:24:09.271Z,1009.53
2022-08-17T03:26:02.460Z,1009.53
2022-08-17T03:28:02.398Z,1009.35
2022-08-17T03:30:02.621Z,1009.35
2022-08-17T03:32:01.942Z,1009.37
2022-08-17T03:34:02.298Z,1009.37
2022-08-17T03:36:01.777Z,1009.36
2022-08-17T03:38:02.408Z,1009.36
2022-08-17T03:40:02.175Z,1009.45
2022-08-17T03:42:01.719Z,1009.45
2022-08-17T03:44:02.379Z,1009.33
2022-08-17T03:46:02.519Z,1009.33
2022-08-17T03:48:02.140Z,1009.27
2022-08-17T03:50:01.905Z,1009.27
2022-08-17T03:52:02.314Z,1009.19
2022-08-17T03:54:02.116Z,1009.19
2022-08-17T03:56:01.768Z,1009.3
2022-08-17T03:58:02.154Z,1009.3
2022-08-17T04:00:04.776Z,1009.51
2022-08-17T04:02:01.884Z,1009.51
2022-08-17T04:04:01.930Z,1009.32
2022-08-17T04:06:02.530Z,1009.32
2022-08-17T04:08:05.386Z,1009.4
2022-08-17T04:10:02.454Z,1009.4
2022-08-17T04:12:05.380Z,1009.22
2022-08-17T04:14:01.775Z,1009.22
2022-08-17T04:16:02.108Z,1009.19
2022-08-17T04:18:01.724Z,1009.19
2022-08-17T04:20:02.305Z,1009.08
2022-08-17T04:22:02.244Z,1009.08
2022-08-17T04:24:02.244Z,1009.15
2022-08-17T04:26:01.955Z,1009.15
2022-08-17T04:28:02.107Z,1009.13
2022-08-17T04:30:02.306Z,1009.13
2022-08-17T04:32:02.417Z,1009.02
2022-08-17T04:34:02.406Z,1009.02
2022-08-17T04:36:02.298Z,1009.1
2022-08-17T04:38:01.748Z,1009.1
2022-08-17T04:40:04.748Z,1009.04
2022-08-17T04:42:01.537Z,1009.04
2022-08-17T04:44:02.355Z,1009.07
2022-08-17T04:46:01.570Z,1009.07
2022-08-17T04:48:02.200Z,1009.1
2022-08-17T04:50:02.524Z,1009.1
2022-08-17T04:52:04.977Z,1009.13
2022-08-17T04:54:01.648Z,1009.13
2022-08-17T04:56:01.975Z,1009.02
2022-08-17T04:58:02.121Z,1009.02
2022-08-17T05:00:07.459Z,1009.26
2022-08-17T05:02:02.571Z,1009.26
2022-08-17T05:04:35.319Z,1009.17
2022-08-17T05:06:02.497Z,1009.17
2022-08-17T05:08:02.129Z,1009.22
2022-08-17T05:10:02.472Z,1009.22
2022-08-17T05:12:01.735Z,1009.16
2022-08-17T05:14:01.893Z,1009.16
2022-08-17T05:16:01.956Z,1009.21
2022-08-17T05:18:02.577Z,1009.21
2022-08-17T05:20:02.363Z,1009.25
2022-08-17T05:22:01.795Z,1009.25
2022-08-17T05:24:16.743Z,1009.15
2022-08-17T05:26:02.340Z,1009.15
2022-08-17T05:28:02.432Z,1009.41
2022-08-17T05:30:02.325Z,1009.41
2022-08-17T05:32:40.503Z,1009.31
2022-08-17T05:34:02.163Z,1009.31
2022-08-17T05:36:01.652Z,1009.3
2022-08-17T05:38:02.285Z,1009.3
2022-08-17T05:40:02.416Z,1009.24
2022-08-17T05:42:02.501Z,1009.26
2022-08-17T05:44:05.838Z,1009.26
2022-08-17T05:46:02.013Z,1009.36
2022-08-17T05:48:01.629Z,1009.36
2022-08-17T05:50:02.321Z,1009.61
2022-08-17T05:52:01.629Z,1009.61
2022-08-17T05:54:02.213Z,1009.76
2022-08-17T05:56:01.824Z,1009.76
2022-08-17T05:58:02.406Z,1009.85
2022-08-17T06:00:07.411Z,1009.85
2022-08-17T06:02:02.148Z,1009.71
2022-08-17T06:04:01.584Z,1009.71
2022-08-17T06:06:02.301Z,1009.57
2022-08-17T06:08:02.515Z,1009.57
2022-08-17T06:10:01.719Z,1009.49
2022-08-17T06:12:02.727Z,1009.49
2022-08-17T06:14:01.650Z,1009.56
2022-08-17T06:16:02.277Z,1009.56
2022-08-17T06:18:02.419Z,1009.55
2022-08-17T06:20:02.041Z,1009.55
2022-08-17T06:22:02.386Z,1009.7
2022-08-17T06:24:02.256Z,1009.7
2022-08-17T06:26:01.783Z,1009.77
2022-08-17T06:28:02.436Z,1009.77
2022-08-17T06:30:02.111Z,1009.66
2022-08-17T06:32:01.945Z,1009.66
2022-08-17T06:34:02.393Z,1009.7
2022-08-17T06:36:01.944Z,1009.7
2022-08-17T06:38:02.129Z,1009.72
2022-08-17T06:40:02.699Z,1009.72
2022-08-17T06:42:02.370Z,1009.68
2022-08-17T06:44:01.881Z,1009.68
2022-08-17T06:46:04.346Z,1009.73
2022-08-17T06:48:02.528Z,1009.73
2022-08-17T06:50:01.751Z,1009.62
2022-08-17T06:52:02.360Z,1009.62
2022-08-17T06:54:02.569Z,1009.63
2022-08-17T06:56:01.937Z,1009.63
2022-08-17T06:58:09.230Z,1009.75
2022-08-17T07:00:05.426Z,1009.75
2022-08-17T07:02:02.356Z,1009.77
2022-08-17T07:04:12.263Z,1009.77
2022-08-17T07:06:02.064Z,1009.76
2022-08-17T07:08:02.477Z,1009.76
2022-08-17T07:10:02.561Z,1009.83
2022-08-17T07:12:02.441Z,1009.83
2022-08-17T07:14:01.916Z,1009.71
2022-08-17T07:16:01.643Z,1009.71
2022-08-17T07:18:02.663Z,1009.65
2022-08-17T07:20:02.435Z,1009.65
2022-08-17T07:22:01.663Z,1009.7
2022-08-17T07:24:02.459Z,1009.7
2022-08-17T07:26:02.082Z,1009.74
2022-08-17T07:28:01.707Z,1009.74
2022-08-17T07:30:10.568Z,1009.77
2022-08-17T07:32:01.733Z,1009.77
2022-08-17T07:34:02.455Z,1009.88
2022-08-17T07:36:02.443Z,1009.88
2022-08-17T07:38:01.736Z,1009.8
2022-08-17T07:40:17.290Z,1009.8
2022-08-17T07:42:02.136Z,1009.95
2022-08-17T07:44:02.114Z,1009.95
2022-08-17T07:46:01.757Z,1009.95
2022-08-17T07:48:01.686Z,1009.95
2022-08-17T07:50:02.573Z,1009.97
2022-08-17T07:52:52.518Z,1009.97
2022-08-17T07:54:15.199Z,1009.99
2022-08-17T07:56:01.574Z,1009.99
2022-08-17T07:58:02.022Z,1010.15
2022-08-17T08:00:16.544Z,1010.15
2022-08-17T08:02:01.773Z,1010.13
2022-08-17T08:04:05.983Z,1010.13
2022-08-17T08:06:01.631Z,1010.16
2022-08-17T08:08:01.960Z,1010.16
2022-08-17T08:10:02.192Z,1010.25
2022-08-17T08:12:01.612Z,1010.25
2022-08-17T08:14:01.970Z,1010.3
2022-08-17T08:16:02.071Z,1010.3
2022-08-17T08:18:01.725Z,1010.03
2022-08-17T08:20:54.216Z,1010.03
2022-08-17T08:22:02.876Z,1010.1
2022-08-17T08:24:02.058Z,1010.1
2022-08-17T08:26:02.142Z,1010.13
2022-08-17T08:28:02.073Z,1010.13
2022-08-17T08:30:02.230Z,1010.23
2022-08-17T08:32:02.467Z,1010.23
2022-08-17T08:34:01.986Z,1010.34
2022-08-17T08:36:01.621Z,1010.34
2022-08-17T08:38:01.626Z,1010.3
2022-08-17T08:40:02.754Z,1010.3
2022-08-17T08:42:01.674Z,1010.39
2022-08-17T08:44:01.981Z,1010.39
2022-08-17T08:46:01.699Z,1010.45
2022-08-17T08:48:06.056Z,1010.45
2022-08-17T08:50:05.967Z,1010.49
2022-08-17T08:52:02.268Z,1010.49
2022-08-17T08:54:02.583Z,1010.39
2022-08-17T08:56:01.999Z,1010.39
2022-08-17T08:58:02.240Z,1010.4
2022-08-17T09:00:05.739Z,1010.4
2022-08-17T09:02:01.914Z,1010.41
2022-08-17T09:04:25.681Z,1010.41
2022-08-17T09:06:01.689Z,1010.51
2022-08-17T09:08:02.106Z,1010.6
2022-08-17T09:10:01.770Z,1010.6
2022-08-17T09:12:04.494Z,1010.63
2022-08-17T09:14:01.687Z,1010.63
2022-08-17T09:16:01.606Z,1010.76
2022-08-17T09:19:02.653Z,1010.76
2022-08-17T09:20:02.269Z,1010.87
2022-08-17T09:22:02.134Z,1010.87
2022-08-17T09:24:01.715Z,1010.97
2022-08-17T09:26:02.372Z,1010.97
2022-08-17T09:28:02.288Z,1011.23
2022-08-17T09:30:01.716Z,1011.23
2022-08-17T09:32:02.258Z,1011.39
2022-08-17T09:34:01.693Z,1011.39
2022-08-17T09:36:02.519Z,1011.43
2022-08-17T09:38:04.147Z,1011.43
2022-08-17T09:40:02.296Z,1011.3
2022-08-17T09:42:02.442Z,1011.3
2022-08-17T09:44:01.740Z,1011.39
2022-08-17T09:46:02.329Z,1011.39
2022-08-17T09:48:02.090Z,1011.41
2022-08-17T09:50:02.404Z,1011.41
2022-08-17T09:52:02.081Z,1011.44
2022-08-17T09:54:39.673Z,1011.44
2022-08-17T09:56:02.161Z,1011.47
2022-08-17T09:58:02.193Z,1011.47
2022-08-17T10:00:06.594Z,1011.42
2022-08-17T10:02:01.649Z,1011.42
2022-08-17T10:04:02.025Z,1011.4
2022-08-17T10:06:06.960Z,1011.4
2022-08-17T10:08:01.777Z,1011.48
2022-08-17T10:10:02.561Z,1011.48
2022-08-17T10:12:02.462Z,1011.38
2022-08-17T10:14:01.624Z,1011.38
2022-08-17T10:16:02.279Z,1011.17
2022-08-17T10:18:02.238Z,1011.17
2022-08-17T10:20:02.563Z,1011.13
2022-08-17T10:22:37.918Z,1011.13
2022-08-17T10:24:01.622Z,1011.05
2022-08-17T10:26:02.181Z,1011.05
2022-08-17T10:28:02.284Z,1010.95
2022-08-17T10:30:02.366Z,1010.95
2022-08-17T10:32:02.110Z,1010.92
2022-08-17T10:34:02.022Z,1010.92
2022-08-17T10:36:10.788Z,1010.86
2022-08-17T10:38:02.502Z,1010.86
2022-08-17T10:40:02.785Z,1010.9
2022-08-17T10:42:02.076Z,1010.9
2022-08-17T10:44:41.392Z,1010.71
2022-08-17T10:46:31.872Z,1010.71
2022-08-17T10:48:07.199Z,1010.79
2022-08-17T10:50:02.036Z,1010.79
2022-08-17T10:52:01.929Z,1010.73
2022-08-17T10:54:01.669Z,1010.73
2022-08-17T10:56:01.771Z,1010.81
2022-08-17T10:58:02.579Z,1010.81
2022-08-17T11:00:05.640Z,1010.74
2022-08-17T11:02:01.900Z,1010.74
2022-08-17T11:04:01.707Z,1010.79
2022-08-17T11:06:02.335Z,1010.79
2022-08-17T11:08:02.710Z,1010.77
2022-08-17T11:10:02.196Z,1010.77
2022-08-17T11:12:02.325Z,1010.74
2022-08-17T11:14:01.877Z,1010.74
2022-08-17T11:16:08.634Z,1010.61
2022-08-17T11:18:01.932Z,1010.61
2022-08-17T11:20:02.189Z,1010.78
2022-08-17T11:22:02.092Z,1010.78
2022-08-17T11:24:01.583Z,1010.8
2022-08-17T11:26:02.301Z,1010.8
2022-08-17T11:28:01.997Z,1010.83
2022-08-17T11:30:03.243Z,1010.83
2022-08-17T11:32:03.095Z,1010.84
2022-08-17T11:34:02.016Z,1010.84
2022-08-17T11:36:02.131Z,1010.98
2022-08-17T11:38:02.198Z,1010.98
2022-08-17T11:40:02.430Z,1011.03
2022-08-17T11:42:01.949Z,1011.03
2022-08-17T11:44:02.992Z,1010.98
2022-08-17T11:46:01.671Z,1010.98
2022-08-17T11:48:28.787Z,1011.01
2022-08-17T11:50:02.566Z,1011.01
2022-08-17T11:52:02.293Z,1011.06
2022-08-17T11:54:33.840Z,1011.06
2022-08-17T11:56:02.397Z,1011.14
2022-08-17T11:58:01.933Z,1011.14
2022-08-17T12:00:06.880Z,1011.24
2022-08-17T12:02:01.921Z,1011.24
2022-08-17T12:04:02.611Z,1011.23
2022-08-17T12:06:02.528Z,1011.23
2022-08-17T12:08:02.105Z,1011.19
2022-08-17T12:10:01.662Z,1011.19
2022-08-17T12:12:14.476Z,1011.3
2022-08-17T12:14:02.264Z,1011.3
2022-08-17T12:16:04.449Z,1011.26
2022-08-17T12:18:02.160Z,1011.26
2022-08-17T12:20:04.673Z,1011.24
2022-08-17T12:22:02.262Z,1011.24
2022-08-17T12:24:01.629Z,1011.23
2022-08-17T12:26:01.991Z,1011.23
2022-08-17T12:28:08.084Z,1011.18
2022-08-17T12:30:01.985Z,1011.18
2022-08-17T12:32:01.782Z,1011.11
2022-08-17T12:34:02.385Z,1011.19
2022-08-17T12:36:02.475Z,1011.19
2022-08-17T12:38:02.552Z,1011.12
2022-08-17T12:40:02.079Z,1011.12
2022-08-17T12:42:03.233Z,1011.15
2022-08-17T12:44:02.507Z,1011.15
2022-08-17T12:46:15.636Z,1011.15
2022-08-17T12:48:01.805Z,1011.15
2022-08-17T12:50:02.393Z,1011.06
2022-08-17T12:52:01.734Z,1011.06
2022-08-17T12:54:02.128Z,1011.1
2022-08-17T12:56:01.929Z,1011.1
2022-08-17T12:58:02.632Z,1011.06
2022-08-17T13:00:05.041Z,1011.06
2022-08-17T13:02:02.276Z,1011.08
2022-08-17T13:04:01.769Z,1011.08
2022-08-17T13:06:02.048Z,1011
2022-08-17T13:08:02.296Z,1011
2022-08-17T13:10:02.503Z,1010.92
2022-08-17T13:12:02.076Z,1010.92
2022-08-17T13:14:02.073Z,1011.04
2022-08-17T13:16:01.969Z,1011.04
2022-08-17T13:18:01.995Z,1011.02
2022-08-17T13:20:01.825Z,1011.02
2022-08-17T13:22:04.492Z,1010.98
2022-08-17T13:24:01.776Z,1010.98
2022-08-17T13:26:01.830Z,1010.77
2022-08-17T13:28:01.601Z,1010.77
2022-08-17T13:30:02.717Z,1010.89
2022-08-17T13:32:05.368Z,1010.89
2022-08-17T13:34:02.198Z,1010.72
2022-08-17T13:36:01.635Z,1010.72
2022-08-17T13:38:02.290Z,1010.72
2022-08-17T13:40:03.023Z,1010.72
2022-08-17T13:42:02.051Z,1010.91
2022-08-17T13:44:02.240Z,1010.91
2022-08-17T13:46:01.767Z,1010.81
2022-08-17T13:48:02.170Z,1010.81
2022-08-17T13:50:02.365Z,1010.82
2022-08-17T13:52:02.438Z,1010.82
2022-08-17T13:54:01.603Z,1010.82
2022-08-17T13:56:02.395Z,1010.82
2022-08-17T13:58:07.560Z,1010.8
2022-08-17T14:00:07.561Z,1010.8
2022-08-17T14:02:01.879Z,1010.75
2022-08-17T14:04:02.608Z,1010.75
2022-08-17T14:06:02.003Z,1010.71
2022-08-17T14:08:07.282Z,1010.71
2022-08-17T14:10:02.145Z,1010.79
2022-08-17T14:12:02.297Z,1010.79
2022-08-17T14:14:02.353Z,1010.71
2022-08-17T14:16:01.597Z,1010.71
2022-08-17T14:18:01.810Z,1010.74
2022-08-17T14:20:02.099Z,1010.74
2022-08-17T14:22:02.033Z,1010.64
2022-08-17T14:24:02.324Z,1010.64
2022-08-17T14:26:02.462Z,1010.65
2022-08-17T14:28:02.060Z,1010.65
2022-08-17T14:30:02.096Z,1010.58
2022-08-17T14:32:02.072Z,1010.58
2022-08-17T14:34:01.937Z,1010.66
2022-08-17T14:36:01.747Z,1010.66
2022-08-17T14:38:02.167Z,1010.63
2022-08-17T14:40:02.959Z,1010.63
2022-08-17T14:42:02.467Z,1010.65
2022-08-17T14:44:01.998Z,1010.65
2022-08-17T14:46:02.193Z,1010.59
2022-08-17T14:48:02.043Z,1010.59
2022-08-17T14:50:02.243Z,1010.71
2022-08-17T14:52:02.046Z,1010.71
2022-08-17T14:54:01.669Z,1010.64
2022-08-17T14:56:01.878Z,1010.64
2022-08-17T14:58:02.546Z,1010.66
2022-08-17T15:00:05.453Z,1010.66
2022-08-17T15:02:02.557Z,1010.64
2022-08-17T15:04:02.277Z,1010.64
2022-08-17T15:06:02.218Z,1010.68
2022-08-17T15:08:02.173Z,1010.68
2022-08-17T15:10:03.160Z,1010.81
2022-08-17T15:12:01.980Z,1010.81
2022-08-17T15:14:02.283Z,1010.73
2022-08-17T15:16:02.104Z,1010.73
2022-08-17T15:18:03.370Z,1010.74
2022-08-17T15:20:02.278Z,1010.74
2022-08-17T15:22:01.931Z,1010.75
2022-08-17T15:24:01.682Z,1010.75
2022-08-17T15:26:01.911Z,1010.84
2022-08-17T15:28:02.194Z,1010.84
2022-08-17T15:30:01.894Z,1010.87
2022-08-17T15:32:02.213Z,1010.87
2022-08-17T15:34:01.608Z,1010.86
2022-08-17T15:36:02.319Z,1010.86
2022-08-17T15:38:11.665Z,1010.84
2022-08-17T15:40:02.669Z,1010.84
2022-08-17T15:42:02.348Z,1010.92
2022-08-17T15:44:01.880Z,1010.92
2022-08-17T15:46:01.609Z,1010.98
2022-08-17T15:48:01.854Z,1010.98
2022-08-17T15:50:02.648Z,1010.99
2022-08-17T15:52:01.757Z,1010.99
2022-08-17T15:54:22.376Z,1010.92
2022-08-17T15:56:01.708Z,1010.92
2022-08-17T15:58:01.872Z,1010.84
2022-08-17T16:00:05.461Z,1010.88
2022-08-17T16:04:04.577Z,1010.88
2022-08-17T16:04:26.754Z,1010.86
2022-08-17T16:06:02.064Z,1010.86
2022-08-17T16:08:01.625Z,1010.89
2022-08-17T16:10:02.059Z,1010.89
2022-08-17T16:12:01.782Z,1010.93
2022-08-17T16:14:01.630Z,1010.93
2022-08-17T16:16:02.199Z,1010.95
2022-08-17T16:18:01.592Z,1010.95
2022-08-17T16:20:02.224Z,1010.84
2022-08-17T16:22:02.327Z,1010.84
2022-08-17T16:24:01.715Z,1010.94
2022-08-17T16:26:01.690Z,1010.94
2022-08-17T16:28:02.258Z,1010.81
2022-08-17T16:30:02.183Z,1010.81
2022-08-17T16:32:02.363Z,1010.91
2022-08-17T16:34:18.869Z,1010.91
2022-08-17T16:36:01.896Z,1010.92
2022-08-17T16:38:02.338Z,1010.92
2022-08-17T16:40:02.154Z,1011.01
2022-08-17T16:42:02.488Z,1011.01
2022-08-17T16:44:01.859Z,1010.97
2022-08-17T16:46:02.094Z,1010.97
2022-08-17T16:48:01.713Z,1011.01
2022-08-17T16:50:02.364Z,1011.01
2022-08-17T16:52:02.129Z,1010.95
2022-08-17T16:54:01.646Z,1010.95
2022-08-17T16:56:01.849Z,1011.07
2022-08-17T16:58:02.119Z,1011.07
2022-08-17T17:00:05.181Z,1011.03
2022-08-17T17:02:02.233Z,1011.03
2022-08-17T17:04:02.020Z,1011.06
2022-08-17T17:06:06.647Z,1011.06
2022-08-17T17:08:01.707Z,1011.05
2022-08-17T17:10:02.180Z,1011.05
2022-08-17T17:12:02.625Z,1011.13
2022-08-17T17:14:02.225Z,1011.13
2022-08-17T17:16:01.908Z,1011.21
2022-08-17T17:18:07.468Z,1011.21
2022-08-17T17:20:02.505Z,1011.12
2022-08-17T17:22:02.396Z,1011.12
2022-08-17T17:24:02.092Z,1011.2
2022-08-17T17:26:01.865Z,1011.2
2022-08-17T17:28:02.222Z,1011.12
2022-08-17T17:30:01.808Z,1011.12
2022-08-17T17:32:02.117Z,1011.18
2022-08-17T17:34:01.977Z,1011.18
2022-08-17T17:36:02.213Z,1011.2
2022-08-17T17:38:02.367Z,1011.2
2022-08-17T17:40:02.026Z,1011.31
2022-08-17T17:42:02.335Z,1011.31
2022-08-17T17:44:03.222Z,1011.29
2022-08-17T17:46:29.388Z,1011.29
2022-08-17T17:48:02.032Z,1011.25
2022-08-17T17:50:02.395Z,1011.25
2022-08-17T17:52:14.339Z,1011.22
2022-08-17T17:54:01.926Z,1011.22
2022-08-17T17:56:02.424Z,1011.21
2022-08-17T17:58:01.679Z,1011.21
2022-08-17T18:00:07.790Z,1011.21
2022-08-17T18:02:02.127Z,1011.21
2022-08-17T18:04:04.807Z,1011.21
2022-08-17T18:06:02.104Z,1011.21
2022-08-17T18:08:11.311Z,1011.16
2022-08-17T18:10:03.012Z,1011.16
2022-08-17T18:12:02.330Z,1011.25
2022-08-17T18:14:02.195Z,1011.25
2022-08-17T18:16:01.580Z,1011.3
2022-08-17T18:18:01.709Z,1011.3
2022-08-17T18:20:02.277Z,1011.34
2022-08-17T18:22:01.649Z,1011.34
2022-08-17T18:24:02.085Z,1011.49
2022-08-17T18:26:02.406Z,1011.49
2022-08-17T18:28:01.751Z,1011.39
2022-08-17T18:30:09.473Z,1011.39
2022-08-17T18:32:02.384Z,1011.45
2022-08-17T18:34:02.419Z,1011.45
2022-08-17T18:36:02.364Z,1011.5
2022-08-17T18:38:01.976Z,1011.5
2022-08-17T18:40:02.463Z,1011.62
2022-08-17T18:42:02.450Z,1011.62
2022-08-17T18:44:01.970Z,1011.53
2022-08-17T18:46:02.159Z,1011.53
2022-08-17T18:48:01.632Z,1011.54
2022-08-17T18:50:01.887Z,1011.54
2022-08-17T18:52:02.252Z,1011.58
2022-08-17T18:54:02.060Z,1011.58
2022-08-17T18:56:01.741Z,1011.67
2022-08-17T18:58:02.377Z,1011.67
2022-08-17T19:00:08.697Z,1011.61
2022-08-17T19:02:22.126Z,1011.61
2022-08-17T19:04:01.743Z,1011.58
2022-08-17T19:06:02.048Z,1011.58
2022-08-17T19:08:01.956Z,1011.57
2022-08-17T19:10:02.261Z,1011.57
2022-08-17T19:12:02.139Z,1011.73
2022-08-17T19:14:02.159Z,1011.73
2022-08-17T19:16:15.924Z,1011.7
2022-08-17T19:18:01.757Z,1011.7
2022-08-17T19:20:02.326Z,1011.72
2022-08-17T19:22:02.668Z,1011.72
2022-08-17T19:24:01.958Z,1011.77
2022-08-17T19:26:01.707Z,1011.79
2022-08-17T19:28:03.964Z,1011.79
2022-08-17T19:30:08.746Z,1011.74
2022-08-17T19:32:01.831Z,1011.74
2022-08-17T19:34:02.470Z,1011.78
2022-08-17T19:36:01.831Z,1011.78
2022-08-17T19:38:01.749Z,1011.77
2022-08-17T19:40:02.057Z,1011.77
2022-08-17T19:42:02.315Z,1011.81
2022-08-17T19:44:01.701Z,1011.81
2022-08-17T19:46:01.983Z,1011.82
2022-08-17T19:48:03.911Z,1011.82
2022-08-17T19:50:01.703Z,1011.69
2022-08-17T19:52:02.036Z,1011.69
2022-08-17T19:54:07.369Z,1011.7
2022-08-17T19:56:02.384Z,1011.7
2022-08-17T19:58:02.466Z,1011.65
2022-08-17T20:00:05.801Z,1011.65
2022-08-17T20:02:02.153Z,1011.79
2022-08-17T20:04:02.445Z,1011.79
2022-08-17T20:06:14.495Z,1011.77
2022-08-17T20:08:02.245Z,1011.77
2022-08-17T20:10:02.123Z,1011.77
2022-08-17T20:12:01.861Z,1011.77
2022-08-17T20:14:01.808Z,1011.87
2022-08-17T20:16:02.420Z,1011.87
2022-08-17T20:18:02.371Z,1011.79
2022-08-17T20:20:01.835Z,1011.79
2022-08-17T20:22:02.146Z,1011.87
2022-08-17T20:24:01.674Z,1011.87
2022-08-17T20:26:01.785Z,1011.81
2022-08-17T20:28:07.021Z,1011.81
2022-08-17T20:30:01.836Z,1011.86
2022-08-17T20:32:02.433Z,1011.86
2022-08-17T20:34:02.564Z,1011.82
2022-08-17T20:36:01.935Z,1011.82
2022-08-17T20:38:02.161Z,1011.82
2022-08-17T20:40:02.849Z,1011.82
2022-08-17T20:42:03.132Z,1011.8
2022-08-17T20:44:02.505Z,1011.8
2022-08-17T20:46:01.846Z,1011.84
2022-08-17T20:48:38.625Z,1011.84
2022-08-17T20:50:02.327Z,1011.95
2022-08-17T20:52:02.994Z,1011.95
2022-08-17T20:54:02.392Z,1012.05
2022-08-17T20:56:02.049Z,1012.05
2022-08-17T20:58:01.823Z,1012.04
2022-08-17T21:00:05.295Z,1012.04
2022-08-17T21:02:02.448Z,1012.17
2022-08-17T21:04:01.720Z,1012.17
2022-08-17T21:06:01.778Z,1012.12
2022-08-17T21:08:01.875Z,1012.12
2022-08-17T21:10:01.682Z,1012.22
2022-08-17T21:12:05.734Z,1012.22
2022-08-17T21:14:01.693Z,1012.21
2022-08-17T21:16:02.049Z,1012.21
2022-08-17T21:18:01.825Z,1012.11
2022-08-17T21:20:12.969Z,1012.11
2022-08-17T21:22:02.032Z,1012.16
2022-08-17T21:24:02.542Z,1012.16
2022-08-17T21:26:02.070Z,1012.12
2022-08-17T21:28:02.491Z,1012.12
2022-08-17T21:30:10.290Z,1012
2022-08-17T21:32:02.262Z,1012
2022-08-17T21:34:02.121Z,1011.98
2022-08-17T21:36:03.098Z,1011.98
2022-08-17T21:38:02.599Z,1011.97
2022-08-17T21:40:02.595Z,1011.97
2022-08-17T21:42:02.463Z,1011.92
2022-08-17T21:44:01.637Z,1011.92
2022-08-17T21:46:02.343Z,1011.99
2022-08-17T21:48:01.669Z,1011.99
2022-08-17T21:50:02.012Z,1012.08
2022-08-17T21:52:02.347Z,1012.08
2022-08-17T21:54:02.225Z,1012.17
2022-08-17T21:56:01.568Z,1012.17
2022-08-17T21:58:15.468Z,1012.19
2022-08-17T22:00:10.087Z,1012.19
2022-08-17T22:02:02.161Z,1012.31
2022-08-17T22:04:01.847Z,1012.31
2022-08-17T22:06:02.109Z,1012.41
2022-08-17T22:08:02.092Z,1012.41
2022-08-17T22:10:02.548Z,1012.49
2022-08-17T22:12:02.078Z,1012.49
2022-08-17T22:14:06.338Z,1012.49
2022-08-17T22:16:01.745Z,1012.49
2022-08-17T22:18:01.820Z,1012.34
2022-08-17T22:20:02.065Z,1012.34
2022-08-17T22:22:02.354Z,1012.31
2022-08-17T22:24:01.958Z,1012.31
2022-08-17T22:26:01.718Z,1012.3
2022-08-17T22:28:02.422Z,1012.3
2022-08-17T22:30:02.284Z,1012.31
2022-08-17T22:32:01.690Z,1012.31
2022-08-17T22:34:02.085Z,1012.43
2022-08-17T22:36:07.912Z,1012.43
2022-08-17T22:38:01.917Z,1012.46
2022-08-17T22:40:02.081Z,1012.46
2022-08-17T22:42:01.908Z,1012.4
2022-08-17T22:44:01.965Z,1012.4
2022-08-17T22:46:02.387Z,1012.46
2022-08-17T22:48:02.448Z,1012.46
2022-08-17T22:50:02.573Z,1012.45
2022-08-17T22:52:01.741Z,1012.45
2022-08-17T22:54:02.175Z,1012.5
2022-08-17T22:56:01.817Z,1012.56
2022-08-17T22:58:01.751Z,1012.56
2022-08-17T23:00:05.775Z,1012.41
2022-08-17T23:02:01.811Z,1012.41
2022-08-17T23:04:01.625Z,1012.46
2022-08-17T23:06:02.145Z,1012.46
2022-08-17T23:08:01.864Z,1012.5
2022-08-17T23:10:02.378Z,1012.5
2022-08-17T23:12:01.824Z,1012.58
2022-08-17T23:14:02.387Z,1012.58
2022-08-17T23:16:01.987Z,1012.54
2022-08-17T23:18:02.159Z,1012.54
2022-08-17T23:20:03.008Z,1012.51
2022-08-17T23:22:01.804Z,1012.51
2022-08-17T23:24:01.832Z,1012.51
2022-08-17T23:26:01.897Z,1012.51
2022-08-17T23:28:02.153Z,1012.38
2022-08-17T23:30:02.007Z,1012.38
2022-08-17T23:32:02.390Z,1012.3
2022-08-17T23:34:01.849Z,1012.3
2022-08-17T23:36:01.776Z,1012.33
2022-08-17T23:38:02.070Z,1012.33
2022-08-17T23:40:02.641Z,1012.44
2022-08-17T23:42:01.741Z,1012.44
2022-08-17T23:44:02.122Z,1012.31
2022-08-17T23:46:01.807Z,1012.31
2022-08-17T23:48:02.165Z,1012.34
2022-08-17T23:50:02.135Z,1012.34
2022-08-17T23:52:01.595Z,1012.45
2022-08-17T23:54:08.476Z,1012.45
2022-08-17T23:56:11.680Z,1012.49
2022-08-17T23:58:02.188Z,1012.49
